KP7 weather

CLOSED Evergreen Acres Airport
Turtle Lake, Saskatchewan, Canada

Public forecast

Using degrees Celsius for public forecast. Weather courtesy of forecast.io.

Closest aviation weather report (METAR) to Evergreen Acres Airport

Report is more than 6 hours old.

Closest report is Meadow Lake Airport, 37.1 nm (68.7 km) N. Retrieved 2020/02/21 00:00 UTC (7 hours ago):

CYLJ 210000Z 24013KT 15SM SCT250 M04/M10 A2978 RMK CC3 SLP119

Closest aviation forecast (TAF) to Evergreen Acres Airport

Closest forecast is North Battleford Airport, 47.2 nm (87.4 km) SSE. Retrieved 2020/02/21 06:42 UTC (0 seconds ago):

TAF CYQW 210538Z 2106/2118 VRB03KT P6SM SKC FM211600 24008KT P6SM SCT160 SCT220 RMK FCST BASED ON AUTO OBS NXT FCST BY 211200Z